createdAt,value
2023-05-18T00:01:54.094Z,54.30
2023-05-18T00:04:24.060Z,54.30
2023-05-18T00:06:56.756Z,54.30
2023-05-18T00:09:25.391Z,54.30
2023-05-18T00:11:54.972Z,54.30
2023-05-18T00:14:23.503Z,54.30
2023-05-18T00:16:53.820Z,54.30
2023-05-18T00:19:22.375Z,54.30
2023-05-18T00:21:50.749Z,54.30
2023-05-18T00:24:19.513Z,54.30
2023-05-18T00:26:49.197Z,54.30
2023-05-18T00:29:18.474Z,54.30
2023-05-18T00:31:46.470Z,54.20
2023-05-18T00:34:15.543Z,54.30
2023-05-18T00:36:43.596Z,54.20
2023-05-18T00:39:11.529Z,54.20
2023-05-18T00:41:39.868Z,54.20
2023-05-18T00:44:07.817Z,54.20
2023-05-18T00:46:37.486Z,54.20
2023-05-18T00:49:05.743Z,54.20
2023-05-18T00:51:34.292Z,54.30
2023-05-18T00:54:03.694Z,54.30
2023-05-18T00:56:33.983Z,54.20
2023-05-18T00:59:03.676Z,54.20
2023-05-18T01:01:34.682Z,54.20
2023-05-18T01:04:05.060Z,54.20
2023-05-18T01:06:36.038Z,54.10
2023-05-18T01:09:07.562Z,54.20
2023-05-18T01:11:44.962Z,54.10
2023-05-18T01:14:19.617Z,54.20
2023-05-18T01:16:55.348Z,54.20
2023-05-18T01:19:50.804Z,54.10
2023-05-18T01:22:34.913Z,54.20
2023-05-18T01:25:09.704Z,54.10
2023-05-18T01:27:42.405Z,54.10
2023-05-18T01:30:11.565Z,54.10
2023-05-18T01:32:42.556Z,54.10
2023-05-18T01:35:10.829Z,54.10
2023-05-18T01:37:38.742Z,54.10
2023-05-18T01:40:09.337Z,54.10
2023-05-18T01:42:45.502Z,54.10
2023-05-18T01:45:19.273Z,54.10
2023-05-18T01:47:49.223Z,54.10
2023-05-18T01:50:22.311Z,54.10
2023-05-18T01:52:55.080Z,54.10
2023-05-18T01:55:25.238Z,54.10
2023-05-18T01:57:55.553Z,54.10
2023-05-18T02:00:24.303Z,54.10
2023-05-18T02:02:53.176Z,54.10
2023-05-18T02:05:21.625Z,54.10
2023-05-18T02:07:49.546Z,54.10
2023-05-18T02:10:17.646Z,54.10
2023-05-18T02:12:49.050Z,54.10
2023-05-18T02:15:18.557Z,54.10
2023-05-18T02:17:47.406Z,54.80
2023-05-18T02:20:18.554Z,54.10
2023-05-18T02:22:48.012Z,54.80
2023-05-18T02:25:17.034Z,54.10
2023-05-18T02:27:44.905Z,54.10
2023-05-18T02:30:15.908Z,54.10
2023-05-18T02:32:47.112Z,54.00
2023-05-18T02:35:15.251Z,54.00
2023-05-18T02:37:44.194Z,54.10
2023-05-18T02:40:13.634Z,54.10
2023-05-18T02:42:41.524Z,54.10
2023-05-18T02:45:10.513Z,54.00
2023-05-18T02:47:38.432Z,54.10
2023-05-18T02:50:09.013Z,54.00
2023-05-18T02:52:36.977Z,54.10
2023-05-18T02:55:05.664Z,54.10
2023-05-18T02:57:33.948Z,54.00
2023-05-18T03:00:01.954Z,54.10
2023-05-18T03:02:30.117Z,54.10
2023-05-18T03:04:58.153Z,54.10
2023-05-18T03:07:27.731Z,54.00
2023-05-18T03:09:55.697Z,54.00
2023-05-18T03:12:23.566Z,54.00
2023-05-18T03:14:51.474Z,54.00
2023-05-18T03:17:19.392Z,54.00
2023-05-18T03:19:47.280Z,54.00
2023-05-18T03:22:15.193Z,54.00
2023-05-18T03:24:44.743Z,54.00
2023-05-18T03:27:16.684Z,54.00
2023-05-18T03:29:44.622Z,54.00
2023-05-18T03:32:12.576Z,54.00
2023-05-18T03:34:40.450Z,54.00
2023-05-18T03:37:08.336Z,54.00
2023-05-18T03:39:36.235Z,54.00
2023-05-18T03:42:05.599Z,54.00
2023-05-18T03:44:33.505Z,54.00
2023-05-18T03:47:01.459Z,54.00
2023-05-18T03:49:29.774Z,54.00
2023-05-18T03:51:57.707Z,54.00
2023-05-18T03:54:25.645Z,54.00
2023-05-18T03:56:53.940Z,54.00
2023-05-18T03:59:23.189Z,54.00
2023-05-18T04:01:53.715Z,54.00
2023-05-18T04:04:23.509Z,54.00
2023-05-18T04:06:52.425Z,53.90
2023-05-18T04:09:21.864Z,53.90
2023-05-18T04:11:49.778Z,53.90
2023-05-18T04:14:18.107Z,53.90
2023-05-18T04:16:47.452Z,53.90
2023-05-18T04:19:15.866Z,53.90
2023-05-18T04:21:43.899Z,53.90
2023-05-18T04:24:14.526Z,53.90
2023-05-18T04:26:43.418Z,53.90
2023-05-18T04:29:13.363Z,53.90
2023-05-18T04:31:47.286Z,53.90
2023-05-18T04:34:17.845Z,53.90
2023-05-18T04:36:46.345Z,53.90
2023-05-18T04:39:14.346Z,53.90
2023-05-18T04:41:42.435Z,53.90
2023-05-18T04:44:10.534Z,53.90
2023-05-18T04:46:40.743Z,53.90
2023-05-18T04:49:09.255Z,53.90
2023-05-18T04:51:38.477Z,53.90
2023-05-18T04:54:09.042Z,53.90
2023-05-18T04:56:37.031Z,53.90
2023-05-18T04:59:05.280Z,53.90
2023-05-18T05:01:33.215Z,53.90
2023-05-18T05:04:01.253Z,53.90
2023-05-18T05:06:29.175Z,53.90
2023-05-18T05:08:58.489Z,53.90
2023-05-18T05:11:26.449Z,53.90
2023-05-18T05:13:54.402Z,53.90
2023-05-18T05:16:22.434Z,53.90
2023-05-18T05:18:50.586Z,53.90
2023-05-18T05:21:18.502Z,53.90
2023-05-18T05:23:46.387Z,53.90
2023-05-18T05:26:15.672Z,53.80
2023-05-18T05:28:43.546Z,53.80
2023-05-18T05:31:11.635Z,53.90
2023-05-18T05:33:39.579Z,53.90
2023-05-18T05:36:08.611Z,53.80
2023-05-18T05:38:36.556Z,53.80
2023-05-18T05:41:04.481Z,53.80
2023-05-18T05:43:33.750Z,53.80
2023-05-18T05:46:01.689Z,53.90
2023-05-18T05:48:29.626Z,53.80
2023-05-18T05:50:57.527Z,53.80
2023-05-18T05:53:25.471Z,53.80
2023-05-18T05:55:53.495Z,53.80
2023-05-18T05:58:21.433Z,53.80
2023-05-18T06:00:50.847Z,53.90
2023-05-18T06:03:18.820Z,53.90
2023-05-18T06:05:47.013Z,53.90
2023-05-18T06:08:15.762Z,53.90
2023-05-18T06:10:44.224Z,53.90
2023-05-18T06:13:12.264Z,53.90
2023-05-18T06:15:40.199Z,53.90
2023-05-18T06:18:10.405Z,53.90
2023-05-18T06:20:40.546Z,53.90
2023-05-18T06:23:08.473Z,53.90
2023-05-18T06:25:36.553Z,53.90
2023-05-18T06:28:04.482Z,53.90
2023-05-18T06:30:32.427Z,53.90
2023-05-18T06:33:00.370Z,53.90
2023-05-18T06:35:29.913Z,53.80
2023-05-18T06:37:58.042Z,53.90
2023-05-18T06:40:27.126Z,53.80
2023-05-18T06:42:55.041Z,54.00
2023-05-18T06:45:23.005Z,54.00
2023-05-18T06:47:50.987Z,54.00
2023-05-18T06:50:18.910Z,54.00
2023-05-18T06:52:48.162Z,54.00
2023-05-18T06:55:16.207Z,54.00
2023-05-18T06:57:44.271Z,54.00
2023-05-18T07:00:13.450Z,54.00
2023-05-18T07:02:43.307Z,53.90
2023-05-18T07:05:11.235Z,54.00
2023-05-18T07:07:39.128Z,54.00
2023-05-18T07:10:09.636Z,54.00
2023-05-18T07:12:37.531Z,54.00
2023-05-18T07:15:06.434Z,54.00
2023-05-18T07:17:34.763Z,54.00
2023-05-18T07:20:03.542Z,54.00
2023-05-18T07:22:31.881Z,53.90
2023-05-18T07:25:00.687Z,54.00
2023-05-18T07:27:29.988Z,54.00
2023-05-18T07:29:57.910Z,54.10
2023-05-18T07:32:25.854Z,54.00
2023-05-18T07:34:53.738Z,54.00
2023-05-18T07:37:21.984Z,54.00
2023-05-18T07:39:49.877Z,54.00
2023-05-18T07:42:17.749Z,53.90
2023-05-18T07:44:46.974Z,53.90
2023-05-18T07:47:14.894Z,54.00
2023-05-18T07:49:43.124Z,54.00
2023-05-18T07:52:11.019Z,53.90
2023-05-18T07:54:38.924Z,54.00
2023-05-18T07:57:06.860Z,53.90
2023-05-18T07:59:34.765Z,53.90
2023-05-18T08:02:05.442Z,54.00
2023-05-18T08:04:33.412Z,54.00
2023-05-18T08:07:02.024Z,54.10
2023-05-18T08:09:29.973Z,54.00
2023-05-18T08:11:58.909Z,54.00
2023-05-18T08:14:26.976Z,54.10
2023-05-18T08:16:54.931Z,54.00
2023-05-18T08:19:24.334Z,54.00
2023-05-18T08:21:52.274Z,54.00
2023-05-18T08:24:20.163Z,54.00
2023-05-18T08:26:48.061Z,54.00
2023-05-18T08:29:16.048Z,54.00
2023-05-18T08:31:44.122Z,54.00
2023-05-18T08:34:12.527Z,54.00
2023-05-18T08:36:44.755Z,54.00
2023-05-18T08:39:12.746Z,54.00
2023-05-18T08:41:50.881Z,54.00
2023-05-18T08:44:22.659Z,54.00
2023-05-18T08:46:51.686Z,54.00
2023-05-18T08:49:21.656Z,54.00
2023-05-18T08:51:57.166Z,54.00
2023-05-18T08:54:25.574Z,54.00
2023-05-18T08:56:54.473Z,54.10
2023-05-18T08:59:25.808Z,54.00
2023-05-18T09:01:54.998Z,54.60
2023-05-18T09:04:23.752Z,54.00
2023-05-18T09:06:56.373Z,54.00
2023-05-18T09:09:26.340Z,54.10
2023-05-18T09:11:56.519Z,54.00
2023-05-18T09:14:26.014Z,54.00
2023-05-18T09:16:54.433Z,54.00
2023-05-18T09:19:24.667Z,54.00
2023-05-18T09:21:54.109Z,54.00
2023-05-18T09:24:24.679Z,54.00
2023-05-18T09:26:53.029Z,54.00
2023-05-18T09:29:23.792Z,54.00
2023-05-18T09:31:52.000Z,54.00
2023-05-18T09:34:19.951Z,54.00
2023-05-18T09:36:49.485Z,54.10
2023-05-18T09:39:18.831Z,54.10
2023-05-18T09:41:46.754Z,54.10
2023-05-18T09:44:15.165Z,54.00
2023-05-18T09:46:43.299Z,54.10
2023-05-18T09:49:11.652Z,54.10
2023-05-18T09:51:40.451Z,54.10
2023-05-18T09:54:10.273Z,54.10
2023-05-18T09:56:39.735Z,54.10
2023-05-18T09:59:11.907Z,54.10
2023-05-18T10:01:56.787Z,54.10
2023-05-18T10:04:24.776Z,54.10
2023-05-18T10:06:52.799Z,54.10
2023-05-18T10:09:20.980Z,54.10
2023-05-18T10:11:51.549Z,54.10
2023-05-18T10:14:24.356Z,54.10
2023-05-18T10:17:00.360Z,54.10
2023-05-18T10:19:36.720Z,54.10
2023-05-18T10:22:06.928Z,54.10
2023-05-18T10:24:36.685Z,54.10
2023-05-18T10:27:09.066Z,54.10
2023-05-18T10:29:38.441Z,54.10
2023-05-18T10:32:08.132Z,54.10
2023-05-18T10:34:37.220Z,54.10
2023-05-18T10:37:09.232Z,54.10
2023-05-18T10:39:39.142Z,54.10
2023-05-18T10:42:10.195Z,54.10
2023-05-18T10:44:40.053Z,54.10
2023-05-18T10:47:11.510Z,54.10
2023-05-18T10:49:41.236Z,54.10
2023-05-18T10:52:11.357Z,54.10
2023-05-18T10:54:40.981Z,54.10
2023-05-18T10:57:13.253Z,54.10
2023-05-18T10:59:44.065Z,54.10
2023-05-18T11:02:15.274Z,54.10
2023-05-18T11:04:43.693Z,54.10
2023-05-18T11:07:12.457Z,54.10
2023-05-18T11:09:42.939Z,54.10
2023-05-18T11:12:17.852Z,54.10
2023-05-18T11:14:50.604Z,54.10
2023-05-18T11:17:20.059Z,54.10
2023-05-18T11:20:14.047Z,54.10
2023-05-18T11:22:49.736Z,54.10
2023-05-18T11:25:45.713Z,54.10
2023-05-18T11:28:15.495Z,54.20
2023-05-18T11:30:51.991Z,54.20
2023-05-18T11:33:25.462Z,54.20
2023-05-18T11:36:03.124Z,54.20
2023-05-18T11:38:48.706Z,54.20
2023-05-18T11:41:36.425Z,54.20
2023-05-18T11:44:21.132Z,54.20
2023-05-18T11:47:03.505Z,54.20
2023-05-18T11:49:33.150Z,54.20
2023-05-18T11:52:07.022Z,54.20
2023-05-18T11:54:36.351Z,54.20
2023-05-18T11:57:04.530Z,54.20
2023-05-18T11:59:35.504Z,54.20
2023-05-18T12:02:04.593Z,54.20
2023-05-18T12:04:33.593Z,54.20
2023-05-18T12:07:06.654Z,54.20
2023-05-18T12:09:35.158Z,54.20
2023-05-18T12:12:03.674Z,54.20
2023-05-18T12:14:35.878Z,54.20
2023-05-18T12:17:04.140Z,54.20
2023-05-18T12:19:38.491Z,54.20
2023-05-18T12:22:07.009Z,54.20
2023-05-18T12:24:34.874Z,54.20
2023-05-18T12:27:07.538Z,54.20
2023-05-18T12:29:40.209Z,54.20
2023-05-18T12:32:10.211Z,54.20
2023-05-18T12:34:39.105Z,54.20
2023-05-18T12:37:07.752Z,54.20
2023-05-18T12:39:36.578Z,54.20
2023-05-18T12:42:11.875Z,54.20
2023-05-18T12:44:43.757Z,54.20
2023-05-18T12:47:12.284Z,54.20
2023-05-18T12:49:41.540Z,54.20
2023-05-18T12:52:11.370Z,54.20
2023-05-18T12:54:54.924Z,54.20
2023-05-18T12:57:26.940Z,54.20
2023-05-18T12:59:56.750Z,54.20
2023-05-18T13:02:34.069Z,54.20
2023-05-18T13:05:08.662Z,54.30
2023-05-18T13:07:38.032Z,54.20
2023-05-18T13:10:11.013Z,54.20
2023-05-18T13:12:46.320Z,54.20
2023-05-18T13:15:17.812Z,54.20
2023-05-18T13:17:59.422Z,54.30
2023-05-18T13:20:36.718Z,54.30
2023-05-18T13:23:07.984Z,54.60
2023-05-18T13:25:35.913Z,54.30
2023-05-18T13:28:04.268Z,54.30
2023-05-18T13:30:33.979Z,54.40
2023-05-18T13:33:02.038Z,54.30
2023-05-18T13:35:30.507Z,54.40
2023-05-18T13:37:58.584Z,54.40
2023-05-18T13:40:26.521Z,54.40
2023-05-18T13:42:54.616Z,54.30
2023-05-18T13:45:22.713Z,54.30
2023-05-18T13:47:53.585Z,54.30
2023-05-18T13:50:23.001Z,54.30
2023-05-18T13:52:51.228Z,54.30
2023-05-18T13:55:19.290Z,54.30
2023-05-18T13:57:47.528Z,54.30
2023-05-18T14:00:17.191Z,54.30
2023-05-18T14:02:46.219Z,54.30
2023-05-18T14:05:16.365Z,54.30
2023-05-18T14:07:44.837Z,54.40
2023-05-18T14:10:14.518Z,54.30
2023-05-18T14:12:43.378Z,54.30
2023-05-18T14:15:14.859Z,54.30
2023-05-18T14:17:43.509Z,54.40
2023-05-18T14:20:12.263Z,54.30
2023-05-18T14:22:41.788Z,54.30
2023-05-18T14:25:10.147Z,54.40
2023-05-18T14:27:38.111Z,54.40
2023-05-18T14:30:07.247Z,54.40
2023-05-18T14:32:35.208Z,54.40
2023-05-18T14:35:03.652Z,54.40
2023-05-18T14:37:32.828Z,54.40
2023-05-18T14:40:02.333Z,54.40
2023-05-18T14:42:30.256Z,54.30
2023-05-18T14:44:58.144Z,54.30
2023-05-18T14:47:26.142Z,54.40
2023-05-18T14:49:54.106Z,54.40
2023-05-18T14:52:21.953Z,54.40
2023-05-18T14:54:49.889Z,54.40
2023-05-18T14:57:19.104Z,54.40
2023-05-18T14:59:47.028Z,54.40
2023-05-18T15:02:15.108Z,54.40
2023-05-18T15:04:43.067Z,54.40
2023-05-18T15:07:10.987Z,54.40
2023-05-18T15:09:38.937Z,54.40
2023-05-18T15:12:07.429Z,54.40
2023-05-18T15:14:37.962Z,54.40
2023-05-18T15:17:07.385Z,54.40
2023-05-18T15:19:35.510Z,54.40
2023-05-18T15:22:03.587Z,54.40
2023-05-18T15:24:31.489Z,54.40
2023-05-18T15:26:59.460Z,54.40
2023-05-18T15:29:28.048Z,54.40
2023-05-18T15:31:57.380Z,54.40
2023-05-18T15:34:25.314Z,54.40
2023-05-18T15:36:53.991Z,54.40
2023-05-18T15:39:21.901Z,54.40
2023-05-18T15:41:49.810Z,54.40
2023-05-18T15:44:17.717Z,54.40
2023-05-18T15:46:45.890Z,54.40
2023-05-18T15:49:15.187Z,54.40
2023-05-18T15:51:43.110Z,54.40
2023-05-18T15:54:11.222Z,54.40
2023-05-18T15:56:39.237Z,54.40
2023-05-18T15:59:08.600Z,54.40
2023-05-18T16:01:36.718Z,54.40
2023-05-18T16:04:04.793Z,54.40
2023-05-18T16:06:34.240Z,54.40
2023-05-18T16:09:02.222Z,54.40
2023-05-18T16:11:30.216Z,54.40
2023-05-18T16:13:58.255Z,54.40
2023-05-18T16:16:26.614Z,54.40
2023-05-18T16:18:54.616Z,54.40
2023-05-18T16:21:22.843Z,54.40
2023-05-18T16:23:52.264Z,54.40
2023-05-18T16:26:20.162Z,54.40
2023-05-18T16:28:48.034Z,54.40
2023-05-18T16:31:16.009Z,54.40
2023-05-18T16:33:44.125Z,54.40
2023-05-18T16:36:11.990Z,54.40
2023-05-18T16:38:39.902Z,54.40
2023-05-18T16:41:09.196Z,54.40
2023-05-18T16:43:37.082Z,54.40
2023-05-18T16:46:05.066Z,54.40
2023-05-18T16:48:32.993Z,54.40
2023-05-18T16:51:00.923Z,54.40
2023-05-18T16:53:28.855Z,54.40
2023-05-18T16:55:56.753Z,54.40
2023-05-18T16:58:26.638Z,54.40
2023-05-18T17:00:54.573Z,54.40
2023-05-18T17:03:22.633Z,54.40
2023-05-18T17:05:50.685Z,54.40
2023-05-18T17:08:18.580Z,54.40
2023-05-18T17:10:46.504Z,54.40
2023-05-18T17:13:14.523Z,54.40
2023-05-18T17:15:44.426Z,54.40
2023-05-18T17:18:12.631Z,54.40
2023-05-18T17:20:40.562Z,54.40
2023-05-18T17:23:08.545Z,54.40
2023-05-18T17:25:36.461Z,54.40
2023-05-18T17:28:04.344Z,54.40
2023-05-18T17:30:32.429Z,54.40
2023-05-18T17:33:01.741Z,54.40
2023-05-18T17:35:29.809Z,54.40
2023-05-18T17:37:57.801Z,54.40
2023-05-18T17:40:25.922Z,54.40
2023-05-18T17:42:53.851Z,54.40
2023-05-18T17:45:22.022Z,54.40
2023-05-18T17:47:50.039Z,54.40
2023-05-18T17:50:19.301Z,54.40
2023-05-18T17:52:47.245Z,54.40
2023-05-18T17:55:15.146Z,54.40
2023-05-18T17:57:45.486Z,54.40
2023-05-18T18:00:15.484Z,54.40
2023-05-18T18:02:43.499Z,54.50
2023-05-18T18:05:11.438Z,54.50
2023-05-18T18:07:40.743Z,54.40
2023-05-18T18:10:09.511Z,54.40
2023-05-18T18:12:37.398Z,54.50
2023-05-18T18:15:05.722Z,54.50
2023-05-18T18:17:33.994Z,54.50
2023-05-18T18:20:01.960Z,54.50
2023-05-18T18:22:29.845Z,54.50
2023-05-18T18:24:59.107Z,54.50
2023-05-18T18:27:27.061Z,54.40
2023-05-18T18:29:54.983Z,54.50
2023-05-18T18:32:22.921Z,54.40
2023-05-18T18:34:51.147Z,54.50
2023-05-18T18:37:19.045Z,54.50
2023-05-18T18:39:47.042Z,54.40
2023-05-18T18:42:20.942Z,54.40
2023-05-18T18:44:52.865Z,54.40
2023-05-18T18:47:21.096Z,54.40
2023-05-18T18:49:49.009Z,54.50
2023-05-18T18:52:17.083Z,54.50
2023-05-18T18:54:45.212Z,54.40
2023-05-18T18:57:13.483Z,54.50
2023-05-18T18:59:42.822Z,54.40
2023-05-18T19:02:10.805Z,54.50
2023-05-18T19:04:38.830Z,54.40
2023-05-18T19:07:06.729Z,54.40
2023-05-18T19:09:36.173Z,54.40
2023-05-18T19:12:04.179Z,54.40
2023-05-18T19:14:32.112Z,54.40
2023-05-18T19:17:01.437Z,54.40
2023-05-18T19:19:29.666Z,54.40
2023-05-18T19:21:57.713Z,54.40
2023-05-18T19:24:25.637Z,54.40
2023-05-18T19:26:53.546Z,54.40
2023-05-18T19:29:21.582Z,54.40
2023-05-18T19:31:49.564Z,54.40
2023-05-18T19:34:18.838Z,54.40
2023-05-18T19:36:46.904Z,54.40
2023-05-18T19:39:16.572Z,54.40
2023-05-18T19:41:44.850Z,54.40
2023-05-18T19:44:13.032Z,54.40
2023-05-18T19:46:41.126Z,54.40
2023-05-18T19:49:10.163Z,54.40
2023-05-18T19:51:39.457Z,54.50
2023-05-18T19:54:07.344Z,54.30
2023-05-18T19:56:35.899Z,54.40
2023-05-18T19:59:03.938Z,54.40
2023-05-18T20:01:32.181Z,54.50
2023-05-18T20:04:00.560Z,54.50
2023-05-18T20:06:29.408Z,54.40
2023-05-18T20:08:58.700Z,54.30
2023-05-18T20:11:26.718Z,54.40
2023-05-18T20:13:54.611Z,54.40
2023-05-18T20:16:22.553Z,54.40
2023-05-18T20:18:51.938Z,54.40
2023-05-18T20:21:20.663Z,54.40
2023-05-18T20:23:48.588Z,54.40
2023-05-18T20:26:17.857Z,54.40
2023-05-18T20:28:45.721Z,54.40
2023-05-18T20:31:13.633Z,54.40
2023-05-18T20:33:44.408Z,54.40
2023-05-18T20:36:13.554Z,54.50
2023-05-18T20:38:41.745Z,54.40
2023-05-18T20:41:09.833Z,54.40
2023-05-18T20:43:39.165Z,54.40
2023-05-18T20:46:08.127Z,54.40
2023-05-18T20:48:37.128Z,54.40
2023-05-18T20:51:05.387Z,54.40
2023-05-18T20:53:33.275Z,54.40
2023-05-18T20:56:01.569Z,54.40
2023-05-18T20:58:29.756Z,54.40
2023-05-18T21:00:59.023Z,54.40
2023-05-18T21:03:27.006Z,54.40
2023-05-18T21:05:54.981Z,54.40
2023-05-18T21:08:22.846Z,54.40
2023-05-18T21:10:50.911Z,54.40
2023-05-18T21:13:19.260Z,54.40
2023-05-18T21:15:47.272Z,54.40
2023-05-18T21:18:16.890Z,54.40
2023-05-18T21:20:44.856Z,54.40
2023-05-18T21:23:12.741Z,54.30
2023-05-18T21:25:40.734Z,54.40
2023-05-18T21:28:08.749Z,54.40
2023-05-18T21:30:36.814Z,54.40
2023-05-18T21:33:05.183Z,54.40
2023-05-18T21:35:34.602Z,54.40
2023-05-18T21:38:02.525Z,54.30
2023-05-18T21:40:30.619Z,54.30
2023-05-18T21:42:58.581Z,54.30
2023-05-18T21:45:26.471Z,54.40
2023-05-18T21:47:54.435Z,54.40
2023-05-18T21:50:22.444Z,54.40
2023-05-18T21:52:52.071Z,54.30
2023-05-18T21:55:19.990Z,54.30
2023-05-18T21:57:47.941Z,54.30
2023-05-18T22:00:18.065Z,54.40
2023-05-18T22:02:46.262Z,54.30
2023-05-18T22:05:14.327Z,54.30
2023-05-18T22:07:42.352Z,54.30
2023-05-18T22:10:12.547Z,54.30
2023-05-18T22:12:43.346Z,54.30
2023-05-18T22:15:12.153Z,54.40
2023-05-18T22:17:40.517Z,54.30
2023-05-18T22:20:11.494Z,54.30
2023-05-18T22:22:40.597Z,54.40
2023-05-18T22:25:09.414Z,54.30
2023-05-18T22:27:39.089Z,54.30
2023-05-18T22:30:07.780Z,54.40
2023-05-18T22:32:36.162Z,54.40
2023-05-18T22:35:04.683Z,54.30
2023-05-18T22:37:32.586Z,54.40
2023-05-18T22:40:00.557Z,54.30
2023-05-18T22:42:28.478Z,54.30
2023-05-18T22:44:57.792Z,54.40
2023-05-18T22:47:28.123Z,54.40
2023-05-18T22:49:56.032Z,54.40
2023-05-18T22:52:23.986Z,54.40
2023-05-18T22:54:51.912Z,54.30
2023-05-18T22:57:19.814Z,54.40
2023-05-18T22:59:47.711Z,54.40
2023-05-18T23:02:17.007Z,54.40
2023-05-18T23:04:45.062Z,54.40
2023-05-18T23:07:13.010Z,54.40
2023-05-18T23:09:40.992Z,54.40
2023-05-18T23:12:13.392Z,54.40
2023-05-18T23:14:41.356Z,54.40
2023-05-18T23:17:09.701Z,54.40
2023-05-18T23:19:39.339Z,54.40
2023-05-18T23:22:07.250Z,54.40
2023-05-18T23:24:35.137Z,54.40
2023-05-18T23:27:03.020Z,54.30
2023-05-18T23:29:30.934Z,55.00
2023-05-18T23:31:58.981Z,54.30
2023-05-18T23:34:27.578Z,54.30
2023-05-18T23:37:02.816Z,54.30
2023-05-18T23:39:31.295Z,54.30
2023-05-18T23:42:00.381Z,54.30
2023-05-18T23:44:29.591Z,54.30
2023-05-18T23:46:58.105Z,54.30
2023-05-18T23:49:26.491Z,54.30
2023-05-18T23:51:58.077Z,54.30
2023-05-18T23:54:26.390Z,54.40
2023-05-18T23:56:54.911Z,55.00
2023-05-18T23:59:23.356Z,54.30
